sensor_id;sensor_type;location;lat;lon;timestamp;temperature;humidity
49579;DHT22;35483;50.828;3.228;2022-10-28T00:00:04;17.50;99.90
49579;DHT22;35483;50.828;3.228;2022-10-28T00:02:30;17.50;99.90
49579;DHT22;35483;50.828;3.228;2022-10-28T00:04:56;17.50;99.90
49579;DHT22;35483;50.828;3.228;2022-10-28T00:07:22;17.50;99.90
49579;DHT22;35483;50.828;3.228;2022-10-28T00:09:48;17.50;99.90
49579;DHT22;35483;50.828;3.228;2022-10-28T00:12:13;17.50;99.90
49579;DHT22;35483;50.828;3.228;2022-10-28T00:14:39;17.50;99.90
49579;DHT22;35483;50.828;3.228;2022-10-28T00:17:05;17.50;99.90
49579;DHT22;35483;50.828;3.228;2022-10-28T00:19:30;17.50;99.90
49579;DHT22;35483;50.828;3.228;2022-10-28T00:21:56;17.50;99.90
49579;DHT22;35483;50.828;3.228;2022-10-28T00:24:22;17.50;99.90
49579;DHT22;35483;50.828;3.228;2022-10-28T00:26:49;17.50;99.90
49579;DHT22;35483;50.828;3.228;2022-10-28T00:29:16;17.50;99.90
49579;DHT22;35483;50.828;3.228;2022-10-28T00:31:43;17.40;99.90
49579;DHT22;35483;50.828;3.228;2022-10-28T00:34:12;17.40;99.90
49579;DHT22;35483;50.828;3.228;2022-10-28T00:36:41;17.40;99.90
49579;DHT22;35483;50.828;3.228;2022-10-28T00:39:19;17.40;99.90
49579;DHT22;35483;50.828;3.228;2022-10-28T00:41:50;17.40;99.90
49579;DHT22;35483;50.828;3.228;2022-10-28T00:49:55;17.30;99.90
49579;DHT22;35483;50.828;3.228;2022-10-28T00:52:26;17.20;99.90
49579;DHT22;35483;50.828;3.228;2022-10-28T00:54:55;17.20;99.90
49579;DHT22;35483;50.828;3.228;2022-10-28T00:57:25;17.20;99.90
49579;DHT22;35483;50.828;3.228;2022-10-28T00:59:53;17.20;99.90
49579;DHT22;35483;50.828;3.228;2022-10-28T01:02:19;17.20;99.90
49579;DHT22;35483;50.828;3.228;2022-10-28T01:04:46;17.20;99.90
49579;DHT22;35483;50.828;3.228;2022-10-28T01:07:14;17.20;99.90
49579;DHT22;35483;50.828;3.228;2022-10-28T01:09:40;17.10;99.90
49579;DHT22;35483;50.828;3.228;2022-10-28T01:15:43;17.10;99.90
49579;DHT22;35483;50.828;3.228;2022-10-28T01:18:26;17.10;99.90
49579;DHT22;35483;50.828;3.228;2022-10-28T01:24:11;17.00;99.90
49579;DHT22;35483;50.828;3.228;2022-10-28T01:34:58;17.00;99.90
49579;DHT22;35483;50.828;3.228;2022-10-28T01:40:31;17.00;99.90
49579;DHT22;35483;50.828;3.228;2022-10-28T01:45:42;16.90;99.90
49579;DHT22;35483;50.828;3.228;2022-10-28T01:48:15;16.90;99.90
49579;DHT22;35483;50.828;3.228;2022-10-28T01:50:48;16.90;99.90
49579;DHT22;35483;50.828;3.228;2022-10-28T01:53:24;16.90;99.90
49579;DHT22;35483;50.828;3.228;2022-10-28T01:55:53;16.90;99.90
49579;DHT22;35483;50.828;3.228;2022-10-28T01:58:24;16.90;99.90
49579;DHT22;35483;50.828;3.228;2022-10-28T02:00:52;16.90;99.90
49579;DHT22;35483;50.828;3.228;2022-10-28T02:03:18;16.90;99.90
49579;DHT22;35483;50.828;3.228;2022-10-28T02:05:50;16.90;99.90
49579;DHT22;35483;50.828;3.228;2022-10-28T02:10:54;17.00;99.90
49579;DHT22;35483;50.828;3.228;2022-10-28T02:13:27;17.00;99.90
49579;DHT22;35483;50.828;3.228;2022-10-28T02:18:41;17.00;99.90
49579;DHT22;35483;50.828;3.228;2022-10-28T02:22:09;17.00;99.90
49579;DHT22;35483;50.828;3.228;2022-10-28T02:27:27;16.90;99.90
49579;DHT22;35483;50.828;3.228;2022-10-28T02:30:11;16.90;99.90
49579;DHT22;35483;50.828;3.228;2022-10-28T02:32:41;16.80;99.90
49579;DHT22;35483;50.828;3.228;2022-10-28T02:35:16;16.80;99.90
49579;DHT22;35483;50.828;3.228;2022-10-28T02:37:44;16.80;99.90
49579;DHT22;35483;50.828;3.228;2022-10-28T02:40:18;16.80;99.90
49579;DHT22;35483;50.828;3.228;2022-10-28T02:42:50;16.80;99.90
49579;DHT22;35483;50.828;3.228;2022-10-28T02:45:21;16.80;99.90
49579;DHT22;35483;50.828;3.228;2022-10-28T02:47:57;16.80;99.90
49579;DHT22;35483;50.828;3.228;2022-10-28T02:50:29;16.80;99.90
49579;DHT22;35483;50.828;3.228;2022-10-28T02:52:58;16.70;99.90
49579;DHT22;35483;50.828;3.228;2022-10-28T02:55:33;16.70;99.90
49579;DHT22;35483;50.828;3.228;2022-10-28T02:58:00;16.70;99.90
49579;DHT22;35483;50.828;3.228;2022-10-28T03:00:26;16.60;99.90
49579;DHT22;35483;50.828;3.228;2022-10-28T03:02:51;16.60;99.90
49579;DHT22;35483;50.828;3.228;2022-10-28T03:05:17;16.60;99.90
49579;DHT22;35483;50.828;3.228;2022-10-28T03:07:43;16.60;99.90
49579;DHT22;35483;50.828;3.228;2022-10-28T03:10:09;16.60;99.90
49579;DHT22;35483;50.828;3.228;2022-10-28T03:12:35;16.60;99.90
49579;DHT22;35483;50.828;3.228;2022-10-28T03:15:01;16.50;99.90
49579;DHT22;35483;50.828;3.228;2022-10-28T03:17:27;16.50;99.90
49579;DHT22;35483;50.828;3.228;2022-10-28T03:19:53;16.50;99.90
49579;DHT22;35483;50.828;3.228;2022-10-28T03:22:19;16.50;99.90
49579;DHT22;35483;50.828;3.228;2022-10-28T03:24:44;16.50;99.90
49579;DHT22;35483;50.828;3.228;2022-10-28T03:27:10;16.50;99.90
49579;DHT22;35483;50.828;3.228;2022-10-28T03:29:36;16.50;99.90
49579;DHT22;35483;50.828;3.228;2022-10-28T03:32:03;16.50;99.90
49579;DHT22;35483;50.828;3.228;2022-10-28T03:34:28;16.50;99.90
49579;DHT22;35483;50.828;3.228;2022-10-28T03:36:54;16.40;99.90
49579;DHT22;35483;50.828;3.228;2022-10-28T03:39:20;16.40;99.90
49579;DHT22;35483;50.828;3.228;2022-10-28T03:41:45;16.40;99.90
49579;DHT22;35483;50.828;3.228;2022-10-28T03:44:11;16.40;99.90
49579;DHT22;35483;50.828;3.228;2022-10-28T03:46:37;16.40;99.90
49579;DHT22;35483;50.828;3.228;2022-10-28T03:49:03;16.30;99.90
49579;DHT22;35483;50.828;3.228;2022-10-28T03:51:28;16.30;99.90
49579;DHT22;35483;50.828;3.228;2022-10-28T03:53:54;16.40;99.90
49579;DHT22;35483;50.828;3.228;2022-10-28T03:56:20;16.30;99.90
49579;DHT22;35483;50.828;3.228;2022-10-28T03:58:49;16.30;99.90
49579;DHT22;35483;50.828;3.228;2022-10-28T04:01:15;16.30;99.90
49579;DHT22;35483;50.828;3.228;2022-10-28T04:03:40;16.30;99.90
49579;DHT22;35483;50.828;3.228;2022-10-28T04:06:06;16.30;99.90
49579;DHT22;35483;50.828;3.228;2022-10-28T04:08:34;16.20;99.90
49579;DHT22;35483;50.828;3.228;2022-10-28T04:11:00;16.20;99.90
49579;DHT22;35483;50.828;3.228;2022-10-28T04:13:26;16.20;99.90
49579;DHT22;35483;50.828;3.228;2022-10-28T04:15:52;16.20;99.90
49579;DHT22;35483;50.828;3.228;2022-10-28T04:18:17;16.10;99.90
49579;DHT22;35483;50.828;3.228;2022-10-28T04:20:45;16.20;99.90
49579;DHT22;35483;50.828;3.228;2022-10-28T04:23:15;16.20;99.90
49579;DHT22;35483;50.828;3.228;2022-10-28T04:25:42;16.20;99.90
49579;DHT22;35483;50.828;3.228;2022-10-28T04:28:08;16.20;99.90
49579;DHT22;35483;50.828;3.228;2022-10-28T04:30:34;16.20;99.90
49579;DHT22;35483;50.828;3.228;2022-10-28T04:32:59;16.20;99.90
49579;DHT22;35483;50.828;3.228;2022-10-28T04:35:25;16.20;99.90
49579;DHT22;35483;50.828;3.228;2022-10-28T04:37:51;16.20;99.90
49579;DHT22;35483;50.828;3.228;2022-10-28T04:40:17;16.20;99.90
49579;DHT22;35483;50.828;3.228;2022-10-28T04:42:42;16.20;99.90
49579;DHT22;35483;50.828;3.228;2022-10-28T04:45:08;16.20;99.90
49579;DHT22;35483;50.828;3.228;2022-10-28T04:47:34;16.20;99.90
49579;DHT22;35483;50.828;3.228;2022-10-28T04:50:00;16.20;99.90
49579;DHT22;35483;50.828;3.228;2022-10-28T04:52:26;16.20;99.90
49579;DHT22;35483;50.828;3.228;2022-10-28T04:54:51;16.20;99.90
49579;DHT22;35483;50.828;3.228;2022-10-28T04:57:17;16.20;99.90
49579;DHT22;35483;50.828;3.228;2022-10-28T04:59:43;16.20;99.90
49579;DHT22;35483;50.828;3.228;2022-10-28T05:02:08;16.20;99.90
49579;DHT22;35483;50.828;3.228;2022-10-28T05:04:34;16.10;99.90
49579;DHT22;35483;50.828;3.228;2022-10-28T05:07:00;16.20;99.90
49579;DHT22;35483;50.828;3.228;2022-10-28T05:09:25;16.20;99.90
49579;DHT22;35483;50.828;3.228;2022-10-28T05:11:51;16.10;99.90
49579;DHT22;35483;50.828;3.228;2022-10-28T05:14:17;16.20;99.90
49579;DHT22;35483;50.828;3.228;2022-10-28T05:16:42;16.10;99.90
49579;DHT22;35483;50.828;3.228;2022-10-28T05:19:08;16.20;99.90
49579;DHT22;35483;50.828;3.228;2022-10-28T05:21:34;16.20;99.90
49579;DHT22;35483;50.828;3.228;2022-10-28T05:23:59;16.20;99.90
49579;DHT22;35483;50.828;3.228;2022-10-28T05:26:25;16.20;99.90
49579;DHT22;35483;50.828;3.228;2022-10-28T05:28:51;16.20;99.90
49579;DHT22;35483;50.828;3.228;2022-10-28T05:31:17;16.20;99.90
49579;DHT22;35483;50.828;3.228;2022-10-28T05:33:43;16.20;99.90
49579;DHT22;35483;50.828;3.228;2022-10-28T05:36:09;16.20;99.90
49579;DHT22;35483;50.828;3.228;2022-10-28T05:38:34;16.30;99.90
49579;DHT22;35483;50.828;3.228;2022-10-28T05:41:00;16.30;99.90
49579;DHT22;35483;50.828;3.228;2022-10-28T05:43:26;16.30;99.90
49579;DHT22;35483;50.828;3.228;2022-10-28T05:45:55;16.30;99.90
49579;DHT22;35483;50.828;3.228;2022-10-28T05:48:21;16.40;99.90
49579;DHT22;35483;50.828;3.228;2022-10-28T05:50:47;16.50;99.90
49579;DHT22;35483;50.828;3.228;2022-10-28T05:53:13;16.50;99.90
49579;DHT22;35483;50.828;3.228;2022-10-28T05:55:38;16.50;99.90
49579;DHT22;35483;50.828;3.228;2022-10-28T05:58:04;16.50;99.90
49579;DHT22;35483;50.828;3.228;2022-10-28T06:00:30;16.60;99.90
49579;DHT22;35483;50.828;3.228;2022-10-28T06:03:07;16.60;99.90
49579;DHT22;35483;50.828;3.228;2022-10-28T06:05:36;16.60;99.90
49579;DHT22;35483;50.828;3.228;2022-10-28T06:08:04;16.60;99.90
49579;DHT22;35483;50.828;3.228;2022-10-28T06:10:29;16.70;99.90
49579;DHT22;35483;50.828;3.228;2022-10-28T06:12:56;16.70;99.90
49579;DHT22;35483;50.828;3.228;2022-10-28T06:15:21;16.70;99.90
49579;DHT22;35483;50.828;3.228;2022-10-28T06:17:50;16.70;99.90
49579;DHT22;35483;50.828;3.228;2022-10-28T06:20:17;16.70;99.90
49579;DHT22;35483;50.828;3.228;2022-10-28T06:22:53;16.70;99.90
49579;DHT22;35483;50.828;3.228;2022-10-28T06:25:20;16.70;99.90
49579;DHT22;35483;50.828;3.228;2022-10-28T06:27:56;16.60;99.90
49579;DHT22;35483;50.828;3.228;2022-10-28T06:30:24;16.60;99.90
49579;DHT22;35483;50.828;3.228;2022-10-28T06:32:50;16.60;99.90
49579;DHT22;35483;50.828;3.228;2022-10-28T06:35:16;16.50;99.90
49579;DHT22;35483;50.828;3.228;2022-10-28T06:37:41;16.50;99.90
49579;DHT22;35483;50.828;3.228;2022-10-28T06:40:07;16.50;99.90
49579;DHT22;35483;50.828;3.228;2022-10-28T06:42:33;16.50;99.90
49579;DHT22;35483;50.828;3.228;2022-10-28T06:44:59;16.50;99.90
49579;DHT22;35483;50.828;3.228;2022-10-28T06:47:25;16.50;99.90
49579;DHT22;35483;50.828;3.228;2022-10-28T06:49:50;16.50;99.90
49579;DHT22;35483;50.828;3.228;2022-10-28T06:52:16;16.60;99.90
49579;DHT22;35483;50.828;3.228;2022-10-28T06:54:42;16.60;99.90
49579;DHT22;35483;50.828;3.228;2022-10-28T06:57:09;16.60;99.90
49579;DHT22;35483;50.828;3.228;2022-10-28T06:59:35;16.60;99.90
49579;DHT22;35483;50.828;3.228;2022-10-28T07:02:01;16.70;99.90
49579;DHT22;35483;50.828;3.228;2022-10-28T07:04:26;16.70;99.90
49579;DHT22;35483;50.828;3.228;2022-10-28T07:06:56;16.70;99.90
49579;DHT22;35483;50.828;3.228;2022-10-28T07:09:22;16.70;99.90
49579;DHT22;35483;50.828;3.228;2022-10-28T07:11:48;16.70;99.90
49579;DHT22;35483;50.828;3.228;2022-10-28T07:14:14;16.70;99.90
49579;DHT22;35483;50.828;3.228;2022-10-28T07:16:40;16.70;99.90
49579;DHT22;35483;50.828;3.228;2022-10-28T07:19:07;16.70;99.90
49579;DHT22;35483;50.828;3.228;2022-10-28T07:21:33;16.70;99.90
49579;DHT22;35483;50.828;3.228;2022-10-28T07:23:59;16.80;99.90
49579;DHT22;35483;50.828;3.228;2022-10-28T07:26:25;16.80;99.90
49579;DHT22;35483;50.828;3.228;2022-10-28T07:28:51;16.80;99.90
49579;DHT22;35483;50.828;3.228;2022-10-28T07:31:17;16.90;99.90
49579;DHT22;35483;50.828;3.228;2022-10-28T07:33:42;16.90;99.90
49579;DHT22;35483;50.828;3.228;2022-10-28T07:36:09;16.90;99.90
49579;DHT22;35483;50.828;3.228;2022-10-28T07:38:35;17.00;99.90
49579;DHT22;35483;50.828;3.228;2022-10-28T07:41:06;17.10;99.90
49579;DHT22;35483;50.828;3.228;2022-10-28T07:43:36;17.10;99.90
49579;DHT22;35483;50.828;3.228;2022-10-28T07:46:04;17.20;99.90
49579;DHT22;35483;50.828;3.228;2022-10-28T07:48:30;17.20;99.90
49579;DHT22;35483;50.828;3.228;2022-10-28T07:51:00;17.30;99.90
49579;DHT22;35483;50.828;3.228;2022-10-28T07:53:26;17.30;99.90
49579;DHT22;35483;50.828;3.228;2022-10-28T07:55:56;17.30;99.90
49579;DHT22;35483;50.828;3.228;2022-10-28T07:58:22;17.40;99.90
49579;DHT22;35483;50.828;3.228;2022-10-28T08:00:48;17.40;99.90
49579;DHT22;35483;50.828;3.228;2022-10-28T08:03:13;17.40;99.90
49579;DHT22;35483;50.828;3.228;2022-10-28T08:05:39;17.40;99.90
49579;DHT22;35483;50.828;3.228;2022-10-28T08:08:05;17.40;99.90
49579;DHT22;35483;50.828;3.228;2022-10-28T08:10:30;17.50;99.90
49579;DHT22;35483;50.828;3.228;2022-10-28T08:12:56;17.50;99.90
49579;DHT22;35483;50.828;3.228;2022-10-28T08:15:22;17.50;99.90
49579;DHT22;35483;50.828;3.228;2022-10-28T08:17:55;17.60;99.90
49579;DHT22;35483;50.828;3.228;2022-10-28T08:20:21;17.60;99.90
49579;DHT22;35483;50.828;3.228;2022-10-28T08:22:47;17.70;99.90
49579;DHT22;35483;50.828;3.228;2022-10-28T08:25:13;17.70;99.90
49579;DHT22;35483;50.828;3.228;2022-10-28T08:27:38;17.80;99.90
49579;DHT22;35483;50.828;3.228;2022-10-28T08:30:07;17.80;99.90
49579;DHT22;35483;50.828;3.228;2022-10-28T08:32:33;17.90;99.90
49579;DHT22;35483;50.828;3.228;2022-10-28T08:34:59;18.00;99.90
49579;DHT22;35483;50.828;3.228;2022-10-28T08:37:25;18.00;99.90
49579;DHT22;35483;50.828;3.228;2022-10-28T08:39:50;18.10;99.90
49579;DHT22;35483;50.828;3.228;2022-10-28T08:42:38;18.20;99.90
49579;DHT22;35483;50.828;3.228;2022-10-28T08:45:19;18.30;99.90
49579;DHT22;35483;50.828;3.228;2022-10-28T08:50:55;18.40;99.90
49579;DHT22;35483;50.828;3.228;2022-10-28T08:55:50;18.50;99.90
49579;DHT22;35483;50.828;3.228;2022-10-28T08:58:32;18.60;99.90
49579;DHT22;35483;50.828;3.228;2022-10-28T09:00:59;18.70;99.90
49579;DHT22;35483;50.828;3.228;2022-10-28T09:03:30;18.80;99.90
49579;DHT22;35483;50.828;3.228;2022-10-28T09:06:03;18.90;99.90
49579;DHT22;35483;50.828;3.228;2022-10-28T09:08:44;19.10;99.90
49579;DHT22;35483;50.828;3.228;2022-10-28T09:11:37;19.20;99.90
49579;DHT22;35483;50.828;3.228;2022-10-28T09:16:53;19.40;99.90
49579;DHT22;35483;50.828;3.228;2022-10-28T09:22:23;19.60;99.80
49579;DHT22;35483;50.828;3.228;2022-10-28T09:25:04;19.80;99.90
49579;DHT22;35483;50.828;3.228;2022-10-28T09:30:46;20.00;99.80
49579;DHT22;35483;50.828;3.228;2022-10-28T09:36:02;20.00;99.80
49579;DHT22;35483;50.828;3.228;2022-10-28T09:38:36;20.00;99.90
49579;DHT22;35483;50.828;3.228;2022-10-28T09:41:23;20.00;99.10
49579;DHT22;35483;50.828;3.228;2022-10-28T09:44:05;20.10;99.90
49579;DHT22;35483;50.828;3.228;2022-10-28T09:46:33;20.10;99.80
49579;DHT22;35483;50.828;3.228;2022-10-28T09:49:03;20.20;99.90
49579;DHT22;35483;50.828;3.228;2022-10-28T09:54:11;20.30;98.60
49579;DHT22;35483;50.828;3.228;2022-10-28T09:56:37;20.40;99.80
49579;DHT22;35483;50.828;3.228;2022-10-28T09:59:03;20.50;99.60
49579;DHT22;35483;50.828;3.228;2022-10-28T10:01:34;20.60;99.70
49579;DHT22;35483;50.828;3.228;2022-10-28T10:04:01;20.60;99.50
49579;DHT22;35483;50.828;3.228;2022-10-28T10:06:37;20.70;99.70
49579;DHT22;35483;50.828;3.228;2022-10-28T10:09:30;20.80;98.90
49579;DHT22;35483;50.828;3.228;2022-10-28T10:11:59;20.80;99.50
49579;DHT22;35483;50.828;3.228;2022-10-28T10:14:45;20.90;99.50
49579;DHT22;35483;50.828;3.228;2022-10-28T10:17:17;20.90;99.00
49579;DHT22;35483;50.828;3.228;2022-10-28T10:20:00;21.00;99.20
49579;DHT22;35483;50.828;3.228;2022-10-28T10:22:33;21.00;98.80
49579;DHT22;35483;50.828;3.228;2022-10-28T10:24:59;21.00;99.20
49579;DHT22;35483;50.828;3.228;2022-10-28T10:27:25;21.10;99.40
49579;DHT22;35483;50.828;3.228;2022-10-28T10:29:52;21.10;99.30
49579;DHT22;35483;50.828;3.228;2022-10-28T10:35:03;21.00;99.10
49579;DHT22;35483;50.828;3.228;2022-10-28T10:37:33;21.00;98.90
49579;DHT22;35483;50.828;3.228;2022-10-28T10:42:31;21.00;99.20
49579;DHT22;35483;50.828;3.228;2022-10-28T10:45:13;21.00;99.30
49579;DHT22;35483;50.828;3.228;2022-10-28T10:47:41;21.00;99.20
49579;DHT22;35483;50.828;3.228;2022-10-28T10:50:28;21.00;99.30
49579;DHT22;35483;50.828;3.228;2022-10-28T10:52:58;21.00;98.40
49579;DHT22;35483;50.828;3.228;2022-10-28T10:55:40;21.00;98.50
49579;DHT22;35483;50.828;3.228;2022-10-28T10:58:15;21.00;98.60
49579;DHT22;35483;50.828;3.228;2022-10-28T11:00:50;21.10;98.50
49579;DHT22;35483;50.828;3.228;2022-10-28T11:03:32;21.20;98.70
49579;DHT22;35483;50.828;3.228;2022-10-28T11:06:02;21.20;98.50
49579;DHT22;35483;50.828;3.228;2022-10-28T11:08:41;21.20;99.10
49579;DHT22;35483;50.828;3.228;2022-10-28T11:11:13;21.30;98.80
49579;DHT22;35483;50.828;3.228;2022-10-28T11:13:40;21.30;99.00
49579;DHT22;35483;50.828;3.228;2022-10-28T11:16:22;21.30;99.00
49579;DHT22;35483;50.828;3.228;2022-10-28T11:18:52;21.30;98.80
49579;DHT22;35483;50.828;3.228;2022-10-28T11:24:42;21.40;98.00
49579;DHT22;35483;50.828;3.228;2022-10-28T11:27:21;21.40;98.50
49579;DHT22;35483;50.828;3.228;2022-10-28T11:29:50;21.40;98.10
49579;DHT22;35483;50.828;3.228;2022-10-28T11:35:01;21.40;98.80
49579;DHT22;35483;50.828;3.228;2022-10-28T11:40:15;21.50;98.80
49579;DHT22;35483;50.828;3.228;2022-10-28T11:43:02;21.50;98.60
49579;DHT22;35483;50.828;3.228;2022-10-28T11:45:35;21.50;98.70
49579;DHT22;35483;50.828;3.228;2022-10-28T11:51:29;21.60;97.90
49579;DHT22;35483;50.828;3.228;2022-10-28T11:54:14;21.60;98.40
49579;DHT22;35483;50.828;3.228;2022-10-28T11:56:46;21.60;98.50
49579;DHT22;35483;50.828;3.228;2022-10-28T12:08:18;21.80;98.50
49579;DHT22;35483;50.828;3.228;2022-10-28T12:11:06;21.80;98.70
49579;DHT22;35483;50.828;3.228;2022-10-28T12:16:45;22.00;97.70
49579;DHT22;35483;50.828;3.228;2022-10-28T12:19:17;22.00;98.50
49579;DHT22;35483;50.828;3.228;2022-10-28T12:22:04;22.10;97.80
49579;DHT22;35483;50.828;3.228;2022-10-28T12:24:36;22.10;98.30
49579;DHT22;35483;50.828;3.228;2022-10-28T12:27:12;22.10;98.40
49579;DHT22;35483;50.828;3.228;2022-10-28T12:29:42;22.10;98.20
49579;DHT22;35483;50.828;3.228;2022-10-28T12:32:12;22.10;98.30
49579;DHT22;35483;50.828;3.228;2022-10-28T12:34:44;22.10;98.20
49579;DHT22;35483;50.828;3.228;2022-10-28T12:37:38;22.20;98.40
49579;DHT22;35483;50.828;3.228;2022-10-28T12:40:18;22.30;98.30
49579;DHT22;35483;50.828;3.228;2022-10-28T12:42:56;22.30;97.30
49579;DHT22;35483;50.828;3.228;2022-10-28T12:45:24;22.40;98.20
49579;DHT22;35483;50.828;3.228;2022-10-28T12:51:09;22.40;98.20
49579;DHT22;35483;50.828;3.228;2022-10-28T12:56:35;22.30;98.30
49579;DHT22;35483;50.828;3.228;2022-10-28T12:59:21;22.40;98.20
49579;DHT22;35483;50.828;3.228;2022-10-28T13:01:49;22.30;98.10
49579;DHT22;35483;50.828;3.228;2022-10-28T13:04:15;22.30;98.60
49579;DHT22;35483;50.828;3.228;2022-10-28T13:26:44;22.10;96.60
49579;DHT22;35483;50.828;3.228;2022-10-28T13:29:22;22.10;98.50
49579;DHT22;35483;50.828;3.228;2022-10-28T13:31:49;22.10;98.10
49579;DHT22;35483;50.828;3.228;2022-10-28T13:34:18;22.00;98.60
49579;DHT22;35483;50.828;3.228;2022-10-28T13:36:46;22.00;98.60
49579;DHT22;35483;50.828;3.228;2022-10-28T13:39:24;22.00;98.60
49579;DHT22;35483;50.828;3.228;2022-10-28T13:52:42;22.20;98.30
49579;DHT22;35483;50.828;3.228;2022-10-28T13:55:26;22.20;98.30
49579;DHT22;35483;50.828;3.228;2022-10-28T13:58:19;22.20;97.80
49579;DHT22;35483;50.828;3.228;2022-10-28T14:00:46;22.10;97.30
49579;DHT22;35483;50.828;3.228;2022-10-28T14:03:18;22.10;98.50
49579;DHT22;35483;50.828;3.228;2022-10-28T14:11:10;22.10;97.60
49579;DHT22;35483;50.828;3.228;2022-10-28T14:16:32;22.00;98.50
49579;DHT22;35483;50.828;3.228;2022-10-28T14:24:10;21.90;97.60
49579;DHT22;35483;50.828;3.228;2022-10-28T14:27:41;21.90;98.70
49579;DHT22;35483;50.828;3.228;2022-10-28T14:29:47;22.00;98.50
49579;DHT22;35483;50.828;3.228;2022-10-28T14:44:15;22.00;98.30
49579;DHT22;35483;50.828;3.228;2022-10-28T14:46:56;22.00;98.20
49579;DHT22;35483;50.828;3.228;2022-10-28T14:51:51;21.90;98.50
49579;DHT22;35483;50.828;3.228;2022-10-28T14:54:42;22.00;98.60
49579;DHT22;35483;50.828;3.228;2022-10-28T14:57:09;21.90;98.10
49579;DHT22;35483;50.828;3.228;2022-10-28T14:59:40;21.80;98.60
49579;DHT22;35483;50.828;3.228;2022-10-28T15:02:13;21.90;98.60
49579;DHT22;35483;50.828;3.228;2022-10-28T15:04:42;21.80;98.40
49579;DHT22;35483;50.828;3.228;2022-10-28T15:07:17;21.70;98.50
49579;DHT22;35483;50.828;3.228;2022-10-28T15:09:44;21.70;98.40
49579;DHT22;35483;50.828;3.228;2022-10-28T15:12:13;21.70;98.50
49579;DHT22;35483;50.828;3.228;2022-10-28T15:14:46;21.70;98.50
49579;DHT22;35483;50.828;3.228;2022-10-28T15:17:16;21.70;98.40
49579;DHT22;35483;50.828;3.228;2022-10-28T15:19:43;21.70;98.50
49579;DHT22;35483;50.828;3.228;2022-10-28T15:22:28;21.60;98.60
49579;DHT22;35483;50.828;3.228;2022-10-28T15:25:05;21.60;98.50
49579;DHT22;35483;50.828;3.228;2022-10-28T15:27:35;21.50;98.60
49579;DHT22;35483;50.828;3.228;2022-10-28T15:30:05;21.50;98.70
49579;DHT22;35483;50.828;3.228;2022-10-28T15:32:37;21.40;98.70
49579;DHT22;35483;50.828;3.228;2022-10-28T15:38:23;21.30;98.70
49579;DHT22;35483;50.828;3.228;2022-10-28T15:40:50;21.20;98.80
49579;DHT22;35483;50.828;3.228;2022-10-28T15:43:26;21.10;99.10
49579;DHT22;35483;50.828;3.228;2022-10-28T15:45:53;21.00;99.00
49579;DHT22;35483;50.828;3.228;2022-10-28T15:48:23;21.00;99.40
49579;DHT22;35483;50.828;3.228;2022-10-28T15:51:14;20.90;99.40
49579;DHT22;35483;50.828;3.228;2022-10-28T16:01:39;20.60;99.40
49579;DHT22;35483;50.828;3.228;2022-10-28T16:04:41;20.50;99.50
49579;DHT22;35483;50.828;3.228;2022-10-28T16:07:08;20.40;99.50
49579;DHT22;35483;50.828;3.228;2022-10-28T16:09:36;20.30;99.70
49579;DHT22;35483;50.828;3.228;2022-10-28T16:12:21;20.30;99.80
49579;DHT22;35483;50.828;3.228;2022-10-28T16:14:57;20.20;99.90
49579;DHT22;35483;50.828;3.228;2022-10-28T16:17:30;20.20;99.80
49579;DHT22;35483;50.828;3.228;2022-10-28T16:20:03;20.10;99.80
49579;DHT22;35483;50.828;3.228;2022-10-28T16:22:34;20.10;99.90
49579;DHT22;35483;50.828;3.228;2022-10-28T16:25:00;20.00;99.90
49579;DHT22;35483;50.828;3.228;2022-10-28T16:27:29;19.90;99.90
49579;DHT22;35483;50.828;3.228;2022-10-28T16:29:55;19.90;99.90
49579;DHT22;35483;50.828;3.228;2022-10-28T16:32:47;19.80;99.90
49579;DHT22;35483;50.828;3.228;2022-10-28T16:35:21;19.80;99.90
49579;DHT22;35483;50.828;3.228;2022-10-28T16:37:48;19.70;99.90
49579;DHT22;35483;50.828;3.228;2022-10-28T16:40:14;19.60;99.90
49579;DHT22;35483;50.828;3.228;2022-10-28T16:42:40;19.70;99.90
49579;DHT22;35483;50.828;3.228;2022-10-28T16:45:16;19.60;99.90
49579;DHT22;35483;50.828;3.228;2022-10-28T16:47:42;19.60;99.90
49579;DHT22;35483;50.828;3.228;2022-10-28T16:50:09;19.50;99.90
49579;DHT22;35483;50.828;3.228;2022-10-28T16:52:35;19.50;99.90
49579;DHT22;35483;50.828;3.228;2022-10-28T16:55:01;19.50;99.90
49579;DHT22;35483;50.828;3.228;2022-10-28T16:57:26;19.50;99.90
49579;DHT22;35483;50.828;3.228;2022-10-28T16:59:53;19.50;99.90
49579;DHT22;35483;50.828;3.228;2022-10-28T17:02:30;19.40;99.90
49579;DHT22;35483;50.828;3.228;2022-10-28T17:04:57;19.40;99.90
49579;DHT22;35483;50.828;3.228;2022-10-28T17:07:23;19.30;99.90
49579;DHT22;35483;50.828;3.228;2022-10-28T17:09:49;19.30;99.90
49579;DHT22;35483;50.828;3.228;2022-10-28T17:12:19;19.20;99.90
49579;DHT22;35483;50.828;3.228;2022-10-28T17:14:46;19.20;99.90
49579;DHT22;35483;50.828;3.228;2022-10-28T17:17:11;19.10;99.90
49579;DHT22;35483;50.828;3.228;2022-10-28T17:19:38;19.10;99.90
49579;DHT22;35483;50.828;3.228;2022-10-28T17:22:05;19.10;99.90
49579;DHT22;35483;50.828;3.228;2022-10-28T17:24:31;19.00;99.90
49579;DHT22;35483;50.828;3.228;2022-10-28T17:26:57;19.00;99.90
49579;DHT22;35483;50.828;3.228;2022-10-28T17:29:22;18.90;99.90
49579;DHT22;35483;50.828;3.228;2022-10-28T17:31:48;18.80;99.90
49579;DHT22;35483;50.828;3.228;2022-10-28T17:34:14;18.80;99.90
49579;DHT22;35483;50.828;3.228;2022-10-28T17:36:40;18.70;99.90
49579;DHT22;35483;50.828;3.228;2022-10-28T17:39:05;18.70;99.90
49579;DHT22;35483;50.828;3.228;2022-10-28T17:41:31;18.70;99.90
49579;DHT22;35483;50.828;3.228;2022-10-28T17:43:57;18.60;99.90
49579;DHT22;35483;50.828;3.228;2022-10-28T17:46:22;18.60;99.90
49579;DHT22;35483;50.828;3.228;2022-10-28T17:48:48;18.60;99.90
49579;DHT22;35483;50.828;3.228;2022-10-28T17:51:14;18.60;99.90
49579;DHT22;35483;50.828;3.228;2022-10-28T17:53:42;18.60;99.90
49579;DHT22;35483;50.828;3.228;2022-10-28T17:56:08;18.60;99.90
49579;DHT22;35483;50.828;3.228;2022-10-28T17:58:34;18.60;99.90
49579;DHT22;35483;50.828;3.228;2022-10-28T18:01:03;18.70;99.90
49579;DHT22;35483;50.828;3.228;2022-10-28T18:03:29;18.70;99.90
49579;DHT22;35483;50.828;3.228;2022-10-28T18:05:55;18.70;99.90
49579;DHT22;35483;50.828;3.228;2022-10-28T18:08:22;18.60;99.90
49579;DHT22;35483;50.828;3.228;2022-10-28T18:10:52;18.60;99.90
49579;DHT22;35483;50.828;3.228;2022-10-28T18:13:19;18.60;99.90
49579;DHT22;35483;50.828;3.228;2022-10-28T18:15:45;18.50;99.90
49579;DHT22;35483;50.828;3.228;2022-10-28T18:18:11;18.50;99.90
49579;DHT22;35483;50.828;3.228;2022-10-28T18:20:37;18.40;99.90
49579;DHT22;35483;50.828;3.228;2022-10-28T18:23:02;18.40;99.90
49579;DHT22;35483;50.828;3.228;2022-10-28T18:25:29;18.30;99.90